sensor_id;sensor_type;location;lat;lon;timestamp;temperature;humidity
12053;DHT22;6087;48.982;12.064;2023-07-16T00:02:03;24.70;1.00
12053;DHT22;6087;48.982;12.064;2023-07-16T00:04:30;24.70;1.00
12053;DHT22;6087;48.982;12.064;2023-07-16T00:06:58;24.60;1.00
12053;DHT22;6087;48.982;12.064;2023-07-16T00:09:27;24.60;1.00
12053;DHT22;6087;48.982;12.064;2023-07-16T00:11:54;24.50;1.00
12053;DHT22;6087;48.982;12.064;2023-07-16T00:14:21;24.50;1.00
12053;DHT22;6087;48.982;12.064;2023-07-16T00:16:48;24.30;1.00
12053;DHT22;6087;48.982;12.064;2023-07-16T00:19:15;24.30;1.00
12053;DHT22;6087;48.982;12.064;2023-07-16T00:21:42;24.40;1.00
12053;DHT22;6087;48.982;12.064;2023-07-16T00:24:09;24.30;1.00
12053;DHT22;6087;48.982;12.064;2023-07-16T00:26:37;24.20;1.00
12053;DHT22;6087;48.982;12.064;2023-07-16T00:29:04;24.20;1.00
12053;DHT22;6087;48.982;12.064;2023-07-16T00:31:32;24.20;1.00
12053;DHT22;6087;48.982;12.064;2023-07-16T00:33:59;24.20;1.00
12053;DHT22;6087;48.982;12.064;2023-07-16T00:36:26;24.30;1.00
12053;DHT22;6087;48.982;12.064;2023-07-16T00:38:53;24.30;1.00
12053;DHT22;6087;48.982;12.064;2023-07-16T00:41:20;24.30;1.00
12053;DHT22;6087;48.982;12.064;2023-07-16T00:43:48;24.10;1.00
12053;DHT22;6087;48.982;12.064;2023-07-16T00:46:15;24.20;1.00
12053;DHT22;6087;48.982;12.064;2023-07-16T00:48:43;24.20;1.00
12053;DHT22;6087;48.982;12.064;2023-07-16T00:51:10;24.10;1.80
12053;DHT22;6087;48.982;12.064;2023-07-16T00:53:38;24.00;4.70
12053;DHT22;6087;48.982;12.064;2023-07-16T00:56:07;24.00;5.30
12053;DHT22;6087;48.982;12.064;2023-07-16T00:58:34;24.00;6.40
12053;DHT22;6087;48.982;12.064;2023-07-16T01:01:03;24.00;10.10
12053;DHT22;6087;48.982;12.064;2023-07-16T01:03:30;23.80;16.20
12053;DHT22;6087;48.982;12.064;2023-07-16T01:06:03;23.80;18.70
12053;DHT22;6087;48.982;12.064;2023-07-16T01:08:32;23.80;19.30
12053;DHT22;6087;48.982;12.064;2023-07-16T01:11:02;23.90;18.10
12053;DHT22;6087;48.982;12.064;2023-07-16T01:13:30;23.90;20.60
12053;DHT22;6087;48.982;12.064;2023-07-16T01:15:57;23.90;24.20
12053;DHT22;6087;48.982;12.064;2023-07-16T01:18:25;23.90;24.60
12053;DHT22;6087;48.982;12.064;2023-07-16T01:20:55;23.90;27.90
12053;DHT22;6087;48.982;12.064;2023-07-16T01:23:33;23.90;29.30
12053;DHT22;6087;48.982;12.064;2023-07-16T01:26:10;23.80;31.90
12053;DHT22;6087;48.982;12.064;2023-07-16T01:31:46;23.70;36.80
12053;DHT22;6087;48.982;12.064;2023-07-16T01:34:15;23.70;40.10
12053;DHT22;6087;48.982;12.064;2023-07-16T01:36:42;23.60;44.60
12053;DHT22;6087;48.982;12.064;2023-07-16T01:39:10;23.30;53.40
12053;DHT22;6087;48.982;12.064;2023-07-16T01:41:39;23.00;59.70
12053;DHT22;6087;48.982;12.064;2023-07-16T01:44:06;22.70;65.70
12053;DHT22;6087;48.982;12.064;2023-07-16T01:46:36;22.60;70.00
12053;DHT22;6087;48.982;12.064;2023-07-16T01:49:05;22.30;76.50
12053;DHT22;6087;48.982;12.064;2023-07-16T01:51:32;22.40;73.30
12053;DHT22;6087;48.982;12.064;2023-07-16T01:53:59;22.50;72.30
12053;DHT22;6087;48.982;12.064;2023-07-16T01:56:26;22.70;73.30
12053;DHT22;6087;48.982;12.064;2023-07-16T01:58:53;22.60;76.90
12053;DHT22;6087;48.982;12.064;2023-07-16T02:01:20;22.40;79.50
12053;DHT22;6087;48.982;12.064;2023-07-16T02:03:47;22.50;77.30
12053;DHT22;6087;48.982;12.064;2023-07-16T02:06:16;22.60;78.40
12053;DHT22;6087;48.982;12.064;2023-07-16T02:08:42;22.50;80.40
12053;DHT22;6087;48.982;12.064;2023-07-16T02:11:09;22.50;77.10
12053;DHT22;6087;48.982;12.064;2023-07-16T02:13:36;22.50;77.50
12053;DHT22;6087;48.982;12.064;2023-07-16T02:16:04;22.50;79.50
12053;DHT22;6087;48.982;12.064;2023-07-16T02:18:31;22.40;79.40
12053;DHT22;6087;48.982;12.064;2023-07-16T02:20:58;22.50;77.40
12053;DHT22;6087;48.982;12.064;2023-07-16T02:23:26;22.60;77.00
12053;DHT22;6087;48.982;12.064;2023-07-16T02:25:53;22.70;76.60
12053;DHT22;6087;48.982;12.064;2023-07-16T02:28:20;22.70;78.20
12053;DHT22;6087;48.982;12.064;2023-07-16T02:30:49;22.70;75.80
12053;DHT22;6087;48.982;12.064;2023-07-16T02:33:16;22.70;75.00
12053;DHT22;6087;48.982;12.064;2023-07-16T02:35:46;22.70;72.30
12053;DHT22;6087;48.982;12.064;2023-07-16T02:38:14;22.70;74.00
12053;DHT22;6087;48.982;12.064;2023-07-16T02:40:44;22.70;75.70
12053;DHT22;6087;48.982;12.064;2023-07-16T02:43:11;22.50;79.00
12053;DHT22;6087;48.982;12.064;2023-07-16T02:45:38;22.50;77.50
12053;DHT22;6087;48.982;12.064;2023-07-16T02:48:06;22.50;78.00
12053;DHT22;6087;48.982;12.064;2023-07-16T02:50:36;22.60;75.20
12053;DHT22;6087;48.982;12.064;2023-07-16T02:53:04;22.50;77.20
12053;DHT22;6087;48.982;12.064;2023-07-16T02:55:31;22.40;85.80
12053;DHT22;6087;48.982;12.064;2023-07-16T02:57:59;22.20;91.10
12053;DHT22;6087;48.982;12.064;2023-07-16T03:00:35;22.00;92.90
12053;DHT22;6087;48.982;12.064;2023-07-16T03:03:02;21.90;95.50
12053;DHT22;6087;48.982;12.064;2023-07-16T03:05:29;21.80;95.70
12053;DHT22;6087;48.982;12.064;2023-07-16T03:07:56;21.70;97.90
12053;DHT22;6087;48.982;12.064;2023-07-16T03:10:29;21.60;99.90
12053;DHT22;6087;48.982;12.064;2023-07-16T03:12:56;21.50;99.90
12053;DHT22;6087;48.982;12.064;2023-07-16T03:15:25;21.50;99.90
12053;DHT22;6087;48.982;12.064;2023-07-16T03:17:52;21.50;99.90
12053;DHT22;6087;48.982;12.064;2023-07-16T03:20:19;21.60;99.90
12053;DHT22;6087;48.982;12.064;2023-07-16T03:22:46;21.50;99.90
12053;DHT22;6087;48.982;12.064;2023-07-16T03:25:13;21.40;99.90
12053;DHT22;6087;48.982;12.064;2023-07-16T03:27:40;21.50;99.90
12053;DHT22;6087;48.982;12.064;2023-07-16T03:30:08;21.40;99.90
12053;DHT22;6087;48.982;12.064;2023-07-16T03:32:36;21.40;99.90
12053;DHT22;6087;48.982;12.064;2023-07-16T03:35:04;21.40;99.90
12053;DHT22;6087;48.982;12.064;2023-07-16T03:37:31;21.50;99.90
12053;DHT22;6087;48.982;12.064;2023-07-16T03:40:12;21.70;99.90
12053;DHT22;6087;48.982;12.064;2023-07-16T03:42:40;21.70;99.90
12053;DHT22;6087;48.982;12.064;2023-07-16T03:45:08;21.70;98.40
12053;DHT22;6087;48.982;12.064;2023-07-16T03:47:36;21.80;98.00
12053;DHT22;6087;48.982;12.064;2023-07-16T03:50:04;21.90;99.90
12053;DHT22;6087;48.982;12.064;2023-07-16T03:52:31;21.80;98.30
12053;DHT22;6087;48.982;12.064;2023-07-16T03:54:58;21.80;99.10
12053;DHT22;6087;48.982;12.064;2023-07-16T03:57:25;21.80;98.00
12053;DHT22;6087;48.982;12.064;2023-07-16T03:59:52;21.90;96.50
12053;DHT22;6087;48.982;12.064;2023-07-16T04:02:19;22.00;97.80
12053;DHT22;6087;48.982;12.064;2023-07-16T04:04:48;22.00;99.00
12053;DHT22;6087;48.982;12.064;2023-07-16T04:07:15;21.90;98.10
12053;DHT22;6087;48.982;12.064;2023-07-16T04:09:42;21.90;99.90
12053;DHT22;6087;48.982;12.064;2023-07-16T04:12:10;21.90;97.80
12053;DHT22;6087;48.982;12.064;2023-07-16T04:14:37;21.90;96.60
12053;DHT22;6087;48.982;12.064;2023-07-16T04:17:04;21.80;96.10
12053;DHT22;6087;48.982;12.064;2023-07-16T04:19:31;21.80;96.40
12053;DHT22;6087;48.982;12.064;2023-07-16T04:22:02;21.80;95.80
12053;DHT22;6087;48.982;12.064;2023-07-16T04:24:29;21.80;96.80
12053;DHT22;6087;48.982;12.064;2023-07-16T04:26:59;21.60;94.90
12053;DHT22;6087;48.982;12.064;2023-07-16T04:29:27;21.50;98.10
12053;DHT22;6087;48.982;12.064;2023-07-16T04:31:56;21.50;99.90
12053;DHT22;6087;48.982;12.064;2023-07-16T04:34:23;21.50;99.90
12053;DHT22;6087;48.982;12.064;2023-07-16T04:36:53;21.30;99.90
12053;DHT22;6087;48.982;12.064;2023-07-16T04:39:22;21.10;99.90
12053;DHT22;6087;48.982;12.064;2023-07-16T04:41:51;21.10;99.90
12053;DHT22;6087;48.982;12.064;2023-07-16T04:44:18;21.00;99.90
12053;DHT22;6087;48.982;12.064;2023-07-16T04:46:45;21.00;99.90
12053;DHT22;6087;48.982;12.064;2023-07-16T04:49:12;20.90;99.90
12053;DHT22;6087;48.982;12.064;2023-07-16T04:51:39;20.90;99.90
12053;DHT22;6087;48.982;12.064;2023-07-16T04:54:06;20.90;99.90
12053;DHT22;6087;48.982;12.064;2023-07-16T04:56:35;20.80;99.90
12053;DHT22;6087;48.982;12.064;2023-07-16T04:59:02;20.90;99.90
12053;DHT22;6087;48.982;12.064;2023-07-16T05:01:32;20.80;99.90
12053;DHT22;6087;48.982;12.064;2023-07-16T05:03:59;20.60;99.90
12053;DHT22;6087;48.982;12.064;2023-07-16T05:06:26;20.50;99.90
12053;DHT22;6087;48.982;12.064;2023-07-16T05:08:56;20.30;99.90
12053;DHT22;6087;48.982;12.064;2023-07-16T05:11:25;20.10;99.90
12053;DHT22;6087;48.982;12.064;2023-07-16T05:14:03;20.10;99.90
12053;DHT22;6087;48.982;12.064;2023-07-16T05:16:31;20.00;99.90
12053;DHT22;6087;48.982;12.064;2023-07-16T05:18:58;20.00;99.90
12053;DHT22;6087;48.982;12.064;2023-07-16T05:21:33;19.90;99.90
12053;DHT22;6087;48.982;12.064;2023-07-16T05:24:09;19.90;99.90
12053;DHT22;6087;48.982;12.064;2023-07-16T05:26:38;19.80;99.90
12053;DHT22;6087;48.982;12.064;2023-07-16T05:29:38;19.60;99.90
12053;DHT22;6087;48.982;12.064;2023-07-16T05:32:08;19.70;99.90
12053;DHT22;6087;48.982;12.064;2023-07-16T05:34:35;19.60;99.90
12053;DHT22;6087;48.982;12.064;2023-07-16T05:37:08;19.60;99.90
12053;DHT22;6087;48.982;12.064;2023-07-16T05:39:37;19.50;99.90
12053;DHT22;6087;48.982;12.064;2023-07-16T05:42:06;19.50;99.90
12053;DHT22;6087;48.982;12.064;2023-07-16T05:44:35;19.30;99.90
12053;DHT22;6087;48.982;12.064;2023-07-16T05:47:08;19.30;99.90
12053;DHT22;6087;48.982;12.064;2023-07-16T05:49:49;19.40;99.90
12053;DHT22;6087;48.982;12.064;2023-07-16T05:52:18;19.40;99.90
12053;DHT22;6087;48.982;12.064;2023-07-16T05:54:48;19.30;99.90
12053;DHT22;6087;48.982;12.064;2023-07-16T05:57:15;19.20;99.90
12053;DHT22;6087;48.982;12.064;2023-07-16T05:59:44;19.30;99.90
12053;DHT22;6087;48.982;12.064;2023-07-16T06:02:11;19.40;99.90
12053;DHT22;6087;48.982;12.064;2023-07-16T06:04:38;19.40;99.90
12053;DHT22;6087;48.982;12.064;2023-07-16T06:07:06;19.40;99.90
12053;DHT22;6087;48.982;12.064;2023-07-16T06:09:33;19.40;99.90
12053;DHT22;6087;48.982;12.064;2023-07-16T06:12:00;19.30;99.90
12053;DHT22;6087;48.982;12.064;2023-07-16T06:14:27;19.40;99.90
12053;DHT22;6087;48.982;12.064;2023-07-16T06:16:55;19.40;99.90
12053;DHT22;6087;48.982;12.064;2023-07-16T06:19:22;19.40;99.90
12053;DHT22;6087;48.982;12.064;2023-07-16T06:21:49;19.50;99.90
12053;DHT22;6087;48.982;12.064;2023-07-16T06:24:16;19.60;99.90
12053;DHT22;6087;48.982;12.064;2023-07-16T06:26:49;19.70;99.90
12053;DHT22;6087;48.982;12.064;2023-07-16T06:29:16;19.80;99.90
12053;DHT22;6087;48.982;12.064;2023-07-16T06:31:53;19.80;99.90
12053;DHT22;6087;48.982;12.064;2023-07-16T06:34:22;19.60;99.90
12053;DHT22;6087;48.982;12.064;2023-07-16T06:36:49;19.60;99.90
12053;DHT22;6087;48.982;12.064;2023-07-16T06:39:16;19.60;99.90
12053;DHT22;6087;48.982;12.064;2023-07-16T06:41:43;19.70;99.90
12053;DHT22;6087;48.982;12.064;2023-07-16T06:44:10;19.70;99.90
12053;DHT22;6087;48.982;12.064;2023-07-16T06:46:38;19.60;99.90
12053;DHT22;6087;48.982;12.064;2023-07-16T06:49:08;19.80;96.80
12053;DHT22;6087;48.982;12.064;2023-07-16T06:51:36;19.90;98.90
12053;DHT22;6087;48.982;12.064;2023-07-16T06:54:03;19.80;97.80
12053;DHT22;6087;48.982;12.064;2023-07-16T06:56:30;19.80;97.70
12053;DHT22;6087;48.982;12.064;2023-07-16T06:58:57;19.70;97.00
12053;DHT22;6087;48.982;12.064;2023-07-16T07:01:24;19.80;98.10
12053;DHT22;6087;48.982;12.064;2023-07-16T07:03:53;19.90;97.40
12053;DHT22;6087;48.982;12.064;2023-07-16T07:06:20;19.80;96.20
12053;DHT22;6087;48.982;12.064;2023-07-16T07:08:49;19.80;95.20
12053;DHT22;6087;48.982;12.064;2023-07-16T07:11:16;19.80;96.20
12053;DHT22;6087;48.982;12.064;2023-07-16T07:13:43;19.90;96.60
12053;DHT22;6087;48.982;12.064;2023-07-16T07:16:10;20.00;95.40
12053;DHT22;6087;48.982;12.064;2023-07-16T07:18:37;20.10;95.80
12053;DHT22;6087;48.982;12.064;2023-07-16T07:21:04;20.00;88.60
12053;DHT22;6087;48.982;12.064;2023-07-16T07:23:31;20.10;90.80
12053;DHT22;6087;48.982;12.064;2023-07-16T07:25:59;20.00;90.80
12053;DHT22;6087;48.982;12.064;2023-07-16T07:28:27;20.00;87.70
12053;DHT22;6087;48.982;12.064;2023-07-16T07:30:54;20.10;90.60
12053;DHT22;6087;48.982;12.064;2023-07-16T07:33:21;20.20;87.40
12053;DHT22;6087;48.982;12.064;2023-07-16T07:35:48;20.30;86.70
12053;DHT22;6087;48.982;12.064;2023-07-16T07:38:15;20.40;73.20
12053;DHT22;6087;48.982;12.064;2023-07-16T07:40:47;20.40;76.20
12053;DHT22;6087;48.982;12.064;2023-07-16T07:43:15;20.40;78.60
12053;DHT22;6087;48.982;12.064;2023-07-16T07:45:43;20.40;74.80
12053;DHT22;6087;48.982;12.064;2023-07-16T07:48:13;20.40;69.70
12053;DHT22;6087;48.982;12.064;2023-07-16T07:50:40;20.40;65.80
12053;DHT22;6087;48.982;12.064;2023-07-16T07:53:07;20.50;66.90
12053;DHT22;6087;48.982;12.064;2023-07-16T07:55:34;20.60;66.60
12053;DHT22;6087;48.982;12.064;2023-07-16T07:58:01;20.70;66.80
12053;DHT22;6087;48.982;12.064;2023-07-16T08:00:30;20.70;63.70
12053;DHT22;6087;48.982;12.064;2023-07-16T08:02:57;20.70;62.60
12053;DHT22;6087;48.982;12.064;2023-07-16T08:05:24;20.60;63.70
12053;DHT22;6087;48.982;12.064;2023-07-16T08:07:51;20.70;64.50
12053;DHT22;6087;48.982;12.064;2023-07-16T08:10:19;20.70;62.10
12053;DHT22;6087;48.982;12.064;2023-07-16T08:12:46;20.70;59.00
12053;DHT22;6087;48.982;12.064;2023-07-16T08:15:13;20.70;59.30
12053;DHT22;6087;48.982;12.064;2023-07-16T08:17:42;20.70;60.20
12053;DHT22;6087;48.982;12.064;2023-07-16T08:20:10;20.80;60.90
12053;DHT22;6087;48.982;12.064;2023-07-16T08:22:38;20.80;59.10
12053;DHT22;6087;48.982;12.064;2023-07-16T08:25:06;20.70;63.80
12053;DHT22;6087;48.982;12.064;2023-07-16T08:27:34;20.70;69.20
12053;DHT22;6087;48.982;12.064;2023-07-16T08:30:05;20.60;72.60
12053;DHT22;6087;48.982;12.064;2023-07-16T08:32:32;20.70;71.50
12053;DHT22;6087;48.982;12.064;2023-07-16T08:35:01;20.80;74.80
12053;DHT22;6087;48.982;12.064;2023-07-16T08:37:28;20.80;72.80
12053;DHT22;6087;48.982;12.064;2023-07-16T08:39:55;20.90;76.10
12053;DHT22;6087;48.982;12.064;2023-07-16T08:42:22;20.80;69.40
12053;DHT22;6087;48.982;12.064;2023-07-16T08:44:50;20.80;72.40
12053;DHT22;6087;48.982;12.064;2023-07-16T08:47:18;20.80;71.30
12053;DHT22;6087;48.982;12.064;2023-07-16T08:49:55;20.70;70.80
12053;DHT22;6087;48.982;12.064;2023-07-16T08:52:26;20.70;77.90
12053;DHT22;6087;48.982;12.064;2023-07-16T08:54:54;20.80;76.30
12053;DHT22;6087;48.982;12.064;2023-07-16T08:57:21;20.90;75.50
12053;DHT22;6087;48.982;12.064;2023-07-16T08:59:50;20.90;78.30
12053;DHT22;6087;48.982;12.064;2023-07-16T09:02:17;21.00;80.00
12053;DHT22;6087;48.982;12.064;2023-07-16T09:04:47;21.10;81.20
12053;DHT22;6087;48.982;12.064;2023-07-16T09:07:14;21.10;83.80
12053;DHT22;6087;48.982;12.064;2023-07-16T09:09:55;21.20;82.90
12053;DHT22;6087;48.982;12.064;2023-07-16T09:12:25;21.30;83.40
12053;DHT22;6087;48.982;12.064;2023-07-16T09:14:53;21.30;81.00
12053;DHT22;6087;48.982;12.064;2023-07-16T09:17:23;21.40;79.10
12053;DHT22;6087;48.982;12.064;2023-07-16T09:19:52;21.50;77.20
12053;DHT22;6087;48.982;12.064;2023-07-16T09:22:20;21.50;73.10
12053;DHT22;6087;48.982;12.064;2023-07-16T09:24:51;21.50;70.60
12053;DHT22;6087;48.982;12.064;2023-07-16T09:27:18;21.50;67.90
12053;DHT22;6087;48.982;12.064;2023-07-16T09:29:48;21.60;67.40
12053;DHT22;6087;48.982;12.064;2023-07-16T09:32:15;21.60;69.60
12053;DHT22;6087;48.982;12.064;2023-07-16T09:34:42;21.60;72.70
12053;DHT22;6087;48.982;12.064;2023-07-16T09:37:09;21.60;76.30
12053;DHT22;6087;48.982;12.064;2023-07-16T09:39:37;21.70;70.20
12053;DHT22;6087;48.982;12.064;2023-07-16T09:42:06;21.60;54.70
12053;DHT22;6087;48.982;12.064;2023-07-16T09:44:35;21.50;63.90
12053;DHT22;6087;48.982;12.064;2023-07-16T09:47:03;21.50;65.00
12053;DHT22;6087;48.982;12.064;2023-07-16T09:49:30;21.40;65.90
12053;DHT22;6087;48.982;12.064;2023-07-16T09:51:57;21.40;66.30
12053;DHT22;6087;48.982;12.064;2023-07-16T09:54:25;21.50;64.30
12053;DHT22;6087;48.982;12.064;2023-07-16T09:56:55;21.40;65.90
12053;DHT22;6087;48.982;12.064;2023-07-16T09:59:27;21.40;68.40
12053;DHT22;6087;48.982;12.064;2023-07-16T10:01:55;21.50;69.20
12053;DHT22;6087;48.982;12.064;2023-07-16T10:04:22;21.50;75.20
12053;DHT22;6087;48.982;12.064;2023-07-16T10:06:51;21.50;81.80
12053;DHT22;6087;48.982;12.064;2023-07-16T10:09:34;21.50;84.50
12053;DHT22;6087;48.982;12.064;2023-07-16T10:12:14;21.50;77.10
12053;DHT22;6087;48.982;12.064;2023-07-16T10:14:44;21.50;70.60
12053;DHT22;6087;48.982;12.064;2023-07-16T10:17:16;21.50;70.00
12053;DHT22;6087;48.982;12.064;2023-07-16T10:20:05;21.50;68.60
12053;DHT22;6087;48.982;12.064;2023-07-16T10:22:35;21.70;71.50
12053;DHT22;6087;48.982;12.064;2023-07-16T10:25:02;21.60;66.50
12053;DHT22;6087;48.982;12.064;2023-07-16T10:27:30;21.60;62.80
12053;DHT22;6087;48.982;12.064;2023-07-16T10:30:00;21.60;66.80
12053;DHT22;6087;48.982;12.064;2023-07-16T10:32:29;21.70;67.10
12053;DHT22;6087;48.982;12.064;2023-07-16T10:34:57;21.80;75.80
12053;DHT22;6087;48.982;12.064;2023-07-16T10:37:24;21.80;70.10
12053;DHT22;6087;48.982;12.064;2023-07-16T10:39:52;21.90;71.90
12053;DHT22;6087;48.982;12.064;2023-07-16T10:42:20;22.00;69.10
12053;DHT22;6087;48.982;12.064;2023-07-16T10:44:51;22.10;60.20
12053;DHT22;6087;48.982;12.064;2023-07-16T10:47:21;22.10;57.90
12053;DHT22;6087;48.982;12.064;2023-07-16T10:49:49;22.20;59.80
12053;DHT22;6087;48.982;12.064;2023-07-16T10:52:17;22.30;62.60
12053;DHT22;6087;48.982;12.064;2023-07-16T10:54:46;22.30;57.40
12053;DHT22;6087;48.982;12.064;2023-07-16T10:57:16;22.40;56.20
12053;DHT22;6087;48.982;12.064;2023-07-16T10:59:45;22.60;56.70
12053;DHT22;6087;48.982;12.064;2023-07-16T11:02:15;22.60;52.10
12053;DHT22;6087;48.982;12.064;2023-07-16T11:04:45;22.70;53.80
12053;DHT22;6087;48.982;12.064;2023-07-16T11:07:13;22.80;52.50
12053;DHT22;6087;48.982;12.064;2023-07-16T11:09:41;22.90;48.70
12053;DHT22;6087;48.982;12.064;2023-07-16T11:12:12;23.00;52.10
12053;DHT22;6087;48.982;12.064;2023-07-16T11:14:39;23.00;49.90
12053;DHT22;6087;48.982;12.064;2023-07-16T11:17:07;23.00;48.00
12053;DHT22;6087;48.982;12.064;2023-07-16T11:19:35;23.20;49.60
12053;DHT22;6087;48.982;12.064;2023-07-16T11:22:12;23.30;48.40
12053;DHT22;6087;48.982;12.064;2023-07-16T11:24:41;23.40;45.40
12053;DHT22;6087;48.982;12.064;2023-07-16T11:27:15;23.60;45.90
12053;DHT22;6087;48.982;12.064;2023-07-16T11:29:45;23.70;43.80
12053;DHT22;6087;48.982;12.064;2023-07-16T11:32:14;23.70;43.30
12053;DHT22;6087;48.982;12.064;2023-07-16T11:34:52;23.80;44.50
12053;DHT22;6087;48.982;12.064;2023-07-16T11:37:21;23.90;42.90
12053;DHT22;6087;48.982;12.064;2023-07-16T11:39:48;23.90;40.30
12053;DHT22;6087;48.982;12.064;2023-07-16T11:42:23;23.90;39.60
12053;DHT22;6087;48.982;12.064;2023-07-16T11:44:50;23.90;38.10
12053;DHT22;6087;48.982;12.064;2023-07-16T11:47:17;24.00;40.20
12053;DHT22;6087;48.982;12.064;2023-07-16T11:49:51;24.00;41.50
12053;DHT22;6087;48.982;12.064;2023-07-16T11:52:21;24.00;35.40
12053;DHT22;6087;48.982;12.064;2023-07-16T11:54:48;23.80;35.60
12053;DHT22;6087;48.982;12.064;2023-07-16T11:57:15;23.80;37.10
12053;DHT22;6087;48.982;12.064;2023-07-16T11:59:42;23.90;39.70
12053;DHT22;6087;48.982;12.064;2023-07-16T12:02:09;24.00;40.00
12053;DHT22;6087;48.982;12.064;2023-07-16T12:04:36;24.10;39.50
12053;DHT22;6087;48.982;12.064;2023-07-16T12:07:03;24.10;39.40
12053;DHT22;6087;48.982;12.064;2023-07-16T12:09:32;24.10;38.60
12053;DHT22;6087;48.982;12.064;2023-07-16T12:11:59;24.20;39.70
12053;DHT22;6087;48.982;12.064;2023-07-16T12:14:26;24.20;38.70
12053;DHT22;6087;48.982;12.064;2023-07-16T12:16:53;24.30;39.20
12053;DHT22;6087;48.982;12.064;2023-07-16T12:19:20;24.40;38.20
12053;DHT22;6087;48.982;12.064;2023-07-16T12:21:47;24.40;36.00
12053;DHT22;6087;48.982;12.064;2023-07-16T12:24:14;24.50;35.70
12053;DHT22;6087;48.982;12.064;2023-07-16T12:26:43;24.50;35.10
12053;DHT22;6087;48.982;12.064;2023-07-16T12:29:12;24.60;34.00
12053;DHT22;6087;48.982;12.064;2023-07-16T12:31:39;24.60;34.10
12053;DHT22;6087;48.982;12.064;2023-07-16T12:34:06;24.60;34.80
12053;DHT22;6087;48.982;12.064;2023-07-16T12:36:33;24.70;33.40
12053;DHT22;6087;48.982;12.064;2023-07-16T12:39:00;24.70;36.00
12053;DHT22;6087;48.982;12.064;2023-07-16T12:41:30;24.70;33.00
12053;DHT22;6087;48.982;12.064;2023-07-16T12:43:58;24.70;33.80
12053;DHT22;6087;48.982;12.064;2023-07-16T12:46:25;24.70;33.70
12053;DHT22;6087;48.982;12.064;2023-07-16T12:48:52;24.70;34.00
12053;DHT22;6087;48.982;12.064;2023-07-16T12:51:19;24.60;32.40
12053;DHT22;6087;48.982;12.064;2023-07-16T12:53:46;24.60;30.90
12053;DHT22;6087;48.982;12.064;2023-07-16T12:56:13;24.60;31.20
12053;DHT22;6087;48.982;12.064;2023-07-16T12:58:40;24.60;32.70
12053;DHT22;6087;48.982;12.064;2023-07-16T13:01:08;24.50;30.00
12053;DHT22;6087;48.982;12.064;2023-07-16T13:03:35;24.30;30.20
12053;DHT22;6087;48.982;12.064;2023-07-16T13:06:03;24.20;30.00
12053;DHT22;6087;48.982;12.064;2023-07-16T13:08:30;24.20;30.00
12053;DHT22;6087;48.982;12.064;2023-07-16T13:10:57;24.10;29.30
12053;DHT22;6087;48.982;12.064;2023-07-16T13:13:24;24.10;30.30
12053;DHT22;6087;48.982;12.064;2023-07-16T13:15:51;24.20;31.20
12053;DHT22;6087;48.982;12.064;2023-07-16T13:18:20;24.30;31.60
12053;DHT22;6087;48.982;12.064;2023-07-16T13:20:47;24.40;31.80
12053;DHT22;6087;48.982;12.064;2023-07-16T13:23:14;24.40;30.10
12053;DHT22;6087;48.982;12.064;2023-07-16T13:25:41;24.40;29.50
12053;DHT22;6087;48.982;12.064;2023-07-16T13:28:11;24.60;29.70
12053;DHT22;6087;48.982;12.064;2023-07-16T13:30:38;24.80;29.50
12053;DHT22;6087;48.982;12.064;2023-07-16T13:33:05;24.80;30.00
12053;DHT22;6087;48.982;12.064;2023-07-16T13:35:33;25.00;31.20
12053;DHT22;6087;48.982;12.064;2023-07-16T13:38:00;25.20;30.90
12053;DHT22;6087;48.982;12.064;2023-07-16T13:40:35;25.30;30.40
12053;DHT22;6087;48.982;12.064;2023-07-16T13:43:02;25.40;30.10
12053;DHT22;6087;48.982;12.064;2023-07-16T13:45:29;25.60;30.60
12053;DHT22;6087;48.982;12.064;2023-07-16T13:47:56;25.70;30.20
12053;DHT22;6087;48.982;12.064;2023-07-16T13:50:25;25.80;26.70
12053;DHT22;6087;48.982;12.064;2023-07-16T13:52:54;25.80;25.20
12053;DHT22;6087;48.982;12.064;2023-07-16T13:55:28;25.80;23.80
12053;DHT22;6087;48.982;12.064;2023-07-16T13:57:57;25.60;21.90
12053;DHT22;6087;48.982;12.064;2023-07-16T14:00:23;25.70;23.20
12053;DHT22;6087;48.982;12.064;2023-07-16T14:02:51;25.70;21.50
12053;DHT22;6087;48.982;12.064;2023-07-16T14:05:18;25.80;21.20
12053;DHT22;6087;48.982;12.064;2023-07-16T14:07:46;25.80;20.40
12053;DHT22;6087;48.982;12.064;2023-07-16T14:10:15;25.90;23.40
12053;DHT22;6087;48.982;12.064;2023-07-16T14:12:42;26.10;22.20
12053;DHT22;6087;48.982;12.064;2023-07-16T14:15:10;26.20;22.60
12053;DHT22;6087;48.982;12.064;2023-07-16T14:17:37;26.20;22.10
12053;DHT22;6087;48.982;12.064;2023-07-16T14:20:05;26.30;21.10
12053;DHT22;6087;48.982;12.064;2023-07-16T14:22:35;26.30;20.30
12053;DHT22;6087;48.982;12.064;2023-07-16T14:25:03;26.20;21.40
12053;DHT22;6087;48.982;12.064;2023-07-16T14:27:32;26.30;20.50
12053;DHT22;6087;48.982;12.064;2023-07-16T14:29:59;26.20;19.90
12053;DHT22;6087;48.982;12.064;2023-07-16T14:32:29;26.20;19.70
12053;DHT22;6087;48.982;12.064;2023-07-16T14:34:57;26.20;19.80
12053;DHT22;6087;48.982;12.064;2023-07-16T14:37:24;26.00;18.80
12053;DHT22;6087;48.982;12.064;2023-07-16T14:39:51;25.80;18.80
12053;DHT22;6087;48.982;12.064;2023-07-16T14:42:18;25.70;19.00
12053;DHT22;6087;48.982;12.064;2023-07-16T14:44:47;25.80;21.00
12053;DHT22;6087;48.982;12.064;2023-07-16T14:47:17;25.90;21.10
12053;DHT22;6087;48.982;12.064;2023-07-16T14:49:45;26.00;22.40
12053;DHT22;6087;48.982;12.064;2023-07-16T14:52:12;26.00;21.10
12053;DHT22;6087;48.982;12.064;2023-07-16T14:54:39;26.00;21.10
12053;DHT22;6087;48.982;12.064;2023-07-16T14:57:06;26.10;21.10
12053;DHT22;6087;48.982;12.064;2023-07-16T14:59:33;26.10;18.90
12053;DHT22;6087;48.982;12.064;2023-07-16T15:02:07;26.10;19.30
12053;DHT22;6087;48.982;12.064;2023-07-16T15:04:34;26.20;19.70
12053;DHT22;6087;48.982;12.064;2023-07-16T15:07:06;26.20;17.20
12053;DHT22;6087;48.982;12.064;2023-07-16T15:09:33;26.10;17.70
12053;DHT22;6087;48.982;12.064;2023-07-16T15:12:03;26.00;17.90
12053;DHT22;6087;48.982;12.064;2023-07-16T15:14:30;26.00;17.40
12053;DHT22;6087;48.982;12.064;2023-07-16T15:16:58;26.00;17.00
12053;DHT22;6087;48.982;12.064;2023-07-16T15:19:26;26.00;17.30
12053;DHT22;6087;48.982;12.064;2023-07-16T15:21:53;26.10;19.30
12053;DHT22;6087;48.982;12.064;2023-07-16T15:24:20;26.20;19.50
12053;DHT22;6087;48.982;12.064;2023-07-16T15:26:47;26.20;16.20
12053;DHT22;6087;48.982;12.064;2023-07-16T15:29:14;26.20;17.10
12053;DHT22;6087;48.982;12.064;2023-07-16T15:31:41;26.30;18.10
12053;DHT22;6087;48.982;12.064;2023-07-16T15:34:08;26.40;18.60
12053;DHT22;6087;48.982;12.064;2023-07-16T15:36:37;26.40;18.30
12053;DHT22;6087;48.982;12.064;2023-07-16T15:39:05;26.30;18.10
12053;DHT22;6087;48.982;12.064;2023-07-16T15:41:39;26.30;16.90
12053;DHT22;6087;48.982;12.064;2023-07-16T15:44:06;26.30;16.80